Time;durP1;ratioP1;P1;durP2;ratioP2;P2;SDS_P1;SDS_P2;PMS_P1;PMS_P2;Temp;Humidity;BMP_temperature;BMP_pressure;BME280_temperature;BME280_humidity;BME280_pressure;Samples;Min_cycle;Max_cycle;Signal;HPM_P1;HPM_P2
2022/11/08 00:03:02;;;;;;;0.20;0.20;;;;;;;13.93;90.94;98478.75;6229737;22;20037;-78
2022/11/08 00:15:14;;;;;;;0.10;0.10;;;;;;;13.67;93.37;98490.75;6321603;22;20381;-74
2022/11/08 00:17:52;;;;;;;;;;;;;;;;;;;;;
2022/11/08 00:20:50;;;;;;;0.65;0.65;;;;;;;14.00;90.30;98498.25;6355149;22;20026;-75
2022/11/08 00:24:22;;;;;;;0.30;0.30;;;;;;;13.74;93.16;98491.03;6333806;22;20014;-79
2022/11/08 00:27:32;;;;;;;0.05;0.05;;;;;;;13.30;94.88;98438.28;6087016;23;20001;-79
2022/11/08 00:30:34;;;;;;;0.00;0.00;;;;;;;13.14;97.75;98432.59;6290300;22;20007;-79
2022/11/08 00:33:35;;;;;;;;;;;;;;;;;;;;;
2022/11/08 00:36:40;;;;;;;0.03;0.03;;;;;;;12.86;99.77;98413.03;6318410;22;20015;-80
2022/11/08 00:39:43;;;;;;;;;;;;;;;;;;;;;
2022/11/08 00:42:52;;;;;;;;;;;;;;;12.78;100.00;98476.97;6278685;22;20022;-78
2022/11/08 00:45:35;;;;;;;0.00;0.00;;;;;;;12.50;100.00;98545.91;6296357;22;19915;-80
2022/11/08 00:48:16;;;;;;;0.00;0.00;;;;;;;12.39;100.00;98480.44;6247658;22;20008;-80
2022/11/08 00:51:41;;;;;;;;;;;;;;;;;;;;;
2022/11/08 00:54:19;;;;;;;0.00;0.00;;;;;;;12.01;100.00;98497.56;6204221;23;20004;-79
2022/11/08 00:57:10;;;;;;;0.00;0.00;;;;;;;11.76;100.00;98542.16;6181279;23;20131;-79
2022/11/08 01:03:20;;;;;;;0.00;0.00;;;;;;;11.34;100.00;98474.94;6275601;22;20059;-80
2022/11/08 01:09:26;;;;;;;0.00;0.00;;;;;;;11.23;100.00;98457.22;6221389;23;20024;-80
2022/11/08 01:11:52;;;;;;;0.00;0.00;;;;;;;11.17;100.00;98447.56;6234701;23;20088;-77
2022/11/08 01:14:26;;;;;;;0.00;0.00;;;;;;;11.26;100.00;98473.00;6287894;22;19999;-78
2022/11/08 01:20:06;;;;;;;0.00;0.00;;;;;;;11.18;100.00;98503.84;6289321;22;20042;-77
2022/11/08 01:23:00;;;;;;;0.00;0.00;;;;;;;11.24;100.00;98508.06;6295354;22;20346;-78
2022/11/08 01:29:18;;;;;;;0.00;0.00;;;;;;;11.22;100.00;98520.47;6201007;23;20012;-79
2022/11/08 01:37:20;;;;;;;0.00;0.00;;;;;;;11.24;100.00;98479.91;6297215;22;20006;-77
2022/11/08 01:39:46;;;;;;;0.00;0.00;;;;;;;11.21;100.00;98491.47;6298753;22;20021;-78
2022/11/08 01:42:15;;;;;;;0.00;0.00;;;;;;;11.12;100.00;98495.00;6326140;22;20062;-78
2022/11/08 01:45:26;;;;;;;0.00;0.00;;;;;;;11.10;100.00;98488.25;6299918;22;20031;-78
2022/11/08 01:47:58;;;;;;;0.00;0.00;;;;;;;11.06;100.00;98507.19;6267470;22;19999;-78
2022/11/08 01:50:26;;;;;;;0.00;0.00;;;;;;;10.90;100.00;98515.00;6272162;22;20011;-77
2022/11/08 01:53:22;;;;;;;;;;;;;;;;;;;;;
2022/11/08 01:56:12;;;;;;;0.00;0.00;;;;;;;10.91;100.00;98532.25;6320635;22;20026;-76
2022/11/08 01:58:43;;;;;;;0.00;0.00;;;;;;;10.87;100.00;98539.47;6297816;22;20007;-77
2022/11/08 02:01:25;;;;;;;;;;;;;;;;;;;;;
2022/11/08 02:04:02;;;;;;;0.00;0.00;;;;;;;10.87;100.00;98521.13;6302452;22;20007;-77
2022/11/08 02:06:40;;;;;;;0.00;0.00;;;;;;;10.84;100.00;98494.41;6276560;22;20011;-77
2022/11/08 02:09:51;;;;;;;0.00;0.00;;;;;;;10.92;100.00;98498.28;6296620;22;20010;-79
2022/11/08 02:12:31;;;;;;;;;;;;;;;;;;;;;
2022/11/08 02:15:09;;;;;;;0.00;0.00;;;;;;;10.89;100.00;98499.72;6326846;22;20022;-78
2022/11/08 02:17:54;;;;;;;;;;;;;;;;;;;;;
2022/11/08 02:20:20;;;;;;;0.00;0.00;;;;;;;10.85;100.00;98460.47;6301602;22;20058;-79
2022/11/08 02:23:34;;;;;;;;;;;;;;;;;;;;;
2022/11/08 02:26:16;;;;;;;;;;;;;;;;;;;;;
2022/11/08 02:28:50;;;;;;;0.00;0.00;;;;;;;10.88;100.00;98451.66;6278792;22;20006;-78
2022/11/08 02:31:23;;;;;;;0.00;0.00;;;;;;;10.93;100.00;98448.75;6275384;22;19995;-77
2022/11/08 02:33:58;;;;;;;0.00;0.00;;;;;;;10.94;100.00;98450.38;6247614;22;20026;-78
2022/11/08 02:36:46;;;;;;;;;;;;;;;;;;;;;
2022/11/08 02:39:19;;;;;;;0.00;0.00;;;;;;;11.07;100.00;98459.59;6323796;22;20026;-78
2022/11/08 02:41:44;;;;;;;0.00;0.00;;;;;;;11.10;100.00;98452.69;6293355;22;19988;-76
2022/11/08 02:44:15;;;;;;;0.00;0.00;;;;;;;11.27;100.00;98447.25;6298521;22;20017;-78
2022/11/08 02:46:41;;;;;;;0.00;0.00;;;;;;;11.29;100.00;98434.06;6270711;22;20023;-78
2022/11/08 02:49:07;;;;;;;0.00;0.00;;;;;;;11.35;100.00;98438.25;6268322;22;20322;-78
2022/11/08 02:51:33;;;;;;;0.00;0.00;;;;;;;11.41;100.00;98440.84;6271902;22;20015;-77
2022/11/08 02:53:59;;;;;;;0.00;0.00;;;;;;;11.41;100.00;98440.84;6277349;22;20023;-78
2022/11/08 02:56:40;;;;;;;0.00;0.00;;;;;;;11.45;100.00;98444.53;6329260;22;20007;-78
2022/11/08 02:59:10;;;;;;;0.00;0.00;;;;;;;11.45;100.00;98441.81;6301556;22;19999;-78
2022/11/08 03:01:44;;;;;;;0.00;0.00;;;;;;;11.43;100.00;98433.09;6301684;22;20004;-78
2022/11/08 03:04:12;;;;;;;;;;;;;;;11.50;100.00;98436.16;6293760;22;20061;-79
2022/11/08 03:06:40;;;;;;;0.00;0.00;;;;;;;11.53;100.00;98427.31;6300795;22;19950;-77
2022/11/08 03:09:12;;;;;;;0.00;0.00;;;;;;;11.62;100.00;98436.34;6272613;22;20075;-79
2022/11/08 03:11:41;;;;;;;0.00;0.00;;;;;;;11.65;100.00;98441.19;6279538;22;20669;-77
2022/11/08 03:14:09;;;;;;;0.00;0.00;;;;;;;11.68;100.00;98435.06;6299265;22;20022;-78
2022/11/08 03:16:35;;;;;;;0.00;0.00;;;;;;;11.69;100.00;98430.38;6274080;22;20003;-78
2022/11/08 03:19:14;;;;;;;;;;;;;;;;;;;;;
2022/11/08 03:21:58;;;;;;;0.00;0.00;;;;;;;11.80;100.00;98428.13;6302709;22;19995;-78
2022/11/08 03:24:55;;;;;;;0.00;0.00;;;;;;;11.77;100.00;98412.31;6271875;22;20009;-79
2022/11/08 03:30:16;;;;;;;0.00;0.00;;;;;;;11.83;100.00;98405.59;6300597;22;20003;-78
2022/11/08 03:32:50;;;;;;;0.00;0.00;;;;;;;11.77;100.00;98410.41;6298901;22;20003;-78
2022/11/08 03:35:45;;;;;;;0.00;0.00;;;;;;;11.72;100.00;98416.03;6297738;22;19995;-79
2022/11/08 03:46:28;;;;;;;;;;;;;;;;;;;;;
2022/11/08 03:49:08;;;;;;;;;;;;;;;;;;;;;
2022/11/08 03:58:56;;;;;;;0.00;0.00;;;;;;;11.23;100.00;98401.69;6190521;23;20306;-78
2022/11/08 04:05:32;;;;;;;;;;;;;;;;;;;;;
2022/11/08 04:08:10;;;;;;;;;;;;;;;;;;;;;
2022/11/08 04:17:09;;;;;;;0.00;0.00;;;;;;;11.21;100.00;98390.25;6341026;22;20034;-76
2022/11/08 04:23:20;;;;;;;0.00;0.00;;;;;;;11.13;100.00;98386.41;6132993;23;20034;-78
2022/11/08 04:26:10;;;;;;;;;;;;;;;;;;;;;
2022/11/08 04:29:05;;;;;;;0.00;0.00;;;;;;;11.21;100.00;98376.56;6201741;23;20009;-78
2022/11/08 04:31:31;;;;;;;0.00;0.00;;;;;;;11.26;100.00;98385.44;6311062;22;20143;-77
2022/11/08 04:33:56;;;;;;;0.00;0.00;;;;;;;11.21;100.00;98387.53;6326319;22;19994;-77
2022/11/08 04:36:22;;;;;;;0.00;0.00;;;;;;;11.23;100.00;98390.72;6299651;22;20007;-78
2022/11/08 04:38:51;;;;;;;0.00;0.00;;;;;;;11.23;100.00;98372.41;6299838;22;20089;-78
2022/11/08 04:41:23;;;;;;;0.00;0.00;;;;;;;11.39;100.00;98377.38;6326222;22;20043;-77
2022/11/08 04:43:53;;;;;;;0.00;0.00;;;;;;;11.39;100.00;98391.06;6323994;22;20054;-78
2022/11/08 04:46:37;;;;;;;0.00;0.00;;;;;;;11.30;100.00;98386.41;6323930;22;20029;-77
2022/11/08 04:49:03;;;;;;;;;;;;;;;11.28;100.00;98383.19;6324947;22;20086;-77
2022/11/08 04:51:32;;;;;;;0.00;0.00;;;;;;;11.26;100.00;98385.44;6325998;22;19890;-77
2022/11/08 04:54:00;;;;;;;0.00;0.00;;;;;;;11.29;100.00;98382.06;6323290;22;19982;-77
2022/11/08 04:56:32;;;;;;;0.00;0.00;;;;;;;11.29;100.00;98376.59;6323922;22;20010;-77
2022/11/08 04:59:08;;;;;;;0.00;0.00;;;;;;;11.28;100.00;98383.19;6324005;22;19999;-77
2022/11/08 05:01:34;;;;;;;0.00;0.00;;;;;;;11.35;100.00;98377.25;6326087;22;20006;-77
2022/11/08 05:03:59;;;;;;;0.00;0.00;;;;;;;11.35;100.00;98386.25;6272791;22;20002;-78
2022/11/08 05:06:32;;;;;;;0.00;0.00;;;;;;;11.33;100.00;98388.50;6293449;22;20007;-76
2022/11/08 05:08:58;;;;;;;0.00;0.00;;;;;;;11.34;100.00;98381.88;6292135;22;20003;-77
2022/11/08 05:11:29;;;;;;;0.00;0.00;;;;;;;11.34;100.00;98392.03;6294822;22;20003;-77
2022/11/08 05:14:06;;;;;;;0.00;0.00;;;;;;;11.34;100.00;98387.34;6292338;22;20015;-78
2022/11/08 05:16:32;;;;;;;0.00;0.00;;;;;;;11.37;100.00;98398.81;6271937;22;20067;-77
2022/11/08 05:23:22;;;;;;;0.00;0.00;;;;;;;11.37;100.00;98398.81;6267028;22;20699;-78
2022/11/08 05:25:26;;;;;;;0.00;0.00;;;;;;;11.54;100.00;98396.09;6322831;22;20017;-78
2022/11/08 05:28:47;;;;;;;;;;;;;;;;;;;;;
2022/11/08 05:32:03;;;;;;;0.00;0.00;;;;;;;11.61;100.00;98401.88;6325074;22;20376;-79
2022/11/08 05:35:24;;;;;;;;;;;;;;;;;;;;;
2022/11/08 05:38:10;;;;;;;0.00;0.00;;;;;;;11.64;100.00;98411.38;6294547;22;20025;-78
2022/11/08 05:42:07;;;;;;;;;;;;;;;;;;;;;
2022/11/08 05:44:39;;;;;;;0.05;0.05;;;;;;;11.46;100.00;98410.56;6218796;23;20009;-78
2022/11/08 05:54:36;;;;;;;;;;;;;;;;;;;;;
2022/11/08 05:57:15;;;;;;;0.00;0.00;;;;;;;10.90;100.00;98410.31;6257988;23;20064;-77
2022/11/08 06:00:41;;;;;;;0.00;0.00;;;;;;;10.75;100.00;98426.03;6258428;22;20008;-79
2022/11/08 06:03:27;;;;;;;0.00;0.00;;;;;;;10.71;100.00;98405.09;6240260;23;20068;-78
2022/11/08 06:05:52;;;;;;;0.00;0.00;;;;;;;10.60;100.00;98393.63;6243282;22;19995;-79
2022/11/08 06:09:10;;;;;;;0.00;0.00;;;;;;;10.58;100.00;98401.34;6296166;22;20014;-76
2022/11/08 06:12:11;;;;;;;;;;;;;;;;;;;;;
2022/11/08 06:15:21;;;;;;;0.00;0.00;;;;;;;10.69;100.00;98399.13;6267796;22;20018;-80
2022/11/08 06:17:49;;;;;;;0.00;0.00;;;;;;;10.65;100.00;98402.50;6199346;22;20027;-79
2022/11/08 06:20:28;;;;;;;;;;;;;;;;;;;;;
2022/11/08 06:23:35;;;;;;;0.00;0.00;;;;;;;10.62;100.00;98411.34;6303660;22;19991;-79
2022/11/08 06:26:34;;;;;;;0.00;0.00;;;;;;;10.64;100.00;98403.63;6271816;22;20001;-80
2022/11/08 06:29:00;;;;;;;0.00;0.00;;;;;;;10.61;100.00;98403.44;6291916;22;20007;-78
2022/11/08 06:31:44;;;;;;;0.00;0.00;;;;;;;10.58;100.00;98396.69;6296332;22;20007;-78
2022/11/08 06:34:19;;;;;;;0.00;0.00;;;;;;;10.63;100.00;98407.47;6272117;22;20014;-79
2022/11/08 06:37:12;;;;;;;0.00;0.00;;;;;;;10.75;100.00;98408.81;6295561;22;20004;-78
2022/11/08 06:39:41;;;;;;;0.00;0.00;;;;;;;10.87;100.00;98400.81;6273069;22;20003;-78
2022/11/08 06:42:08;;;;;;;0.00;0.00;;;;;;;10.90;100.00;98400.16;6295066;22;20023;-77
2022/11/08 06:44:45;;;;;;;0.00;0.00;;;;;;;10.83;100.00;98405.28;6298284;22;19991;-78
2022/11/08 06:47:28;;;;;;;;;;;;;;;;;;;;;
2022/11/08 06:51:05;;;;;;;0.00;0.00;;;;;;;10.97;100.00;98400.50;6300547;22;20019;-78
2022/11/08 06:53:51;;;;;;;0.00;0.00;;;;;;;11.21;100.00;98398.47;6199194;22;20028;-77
2022/11/08 06:59:52;;;;;;;0.00;0.00;;;;;;;11.16;100.00;98413.09;6218045;23;20788;-78
2022/11/08 07:02:45;;;;;;;0.00;0.00;;;;;;;11.13;100.00;98411.00;6233176;23;20004;-78
2022/11/08 07:05:14;;;;;;;0.00;0.00;;;;;;;11.18;100.00;98405.38;6211787;23;20032;-77
2022/11/08 07:07:56;;;;;;;0.00;0.00;;;;;;;11.27;100.00;98419.91;6232397;23;20079;-76
2022/11/08 07:10:53;;;;;;;0.00;0.00;;;;;;;11.29;100.00;98412.16;6262875;22;20107;-79
2022/11/08 07:13:22;;;;;;;0.00;0.00;;;;;;;11.33;100.00;98398.63;6245233;22;20473;-77
2022/11/08 07:15:58;;;;;;;0.00;0.00;;;;;;;11.33;100.00;98390.41;6261512;22;20013;-83
2022/11/08 07:19:23;;;;;;;;;;;;;;;;;;;;;
2022/11/08 07:28:36;;;;;;;0.00;0.00;;;;;;;10.70;100.00;98477.28;6277594;22;20007;-78
2022/11/08 07:31:28;;;;;;;0.00;0.00;;;;;;;10.36;100.00;98440.47;6321548;22;20003;-81
2022/11/08 07:34:35;;;;;;;0.00;0.00;;;;;;;10.15;100.00;98446.44;6260675;22;19995;-78
2022/11/08 07:37:10;;;;;;;;;;;;;;;;;;;;;
2022/11/08 07:39:36;;;;;;;0.00;0.00;;;;;;;9.99;100.00;98454.19;6298488;22;20003;-78
2022/11/08 07:42:07;;;;;;;0.00;0.00;;;;;;;10.11;100.00;98437.22;6295704;22;20010;-78
2022/11/08 07:44:52;;;;;;;;;;;;;;;;;;;;;
2022/11/08 07:47:33;;;;;;;0.00;0.00;;;;;;;10.19;100.00;98444.69;6311834;22;20030;-76
2022/11/08 07:49:59;;;;;;;0.00;0.00;;;;;;;10.24;100.00;98439.09;6294972;22;19988;-77
2022/11/08 07:52:35;;;;;;;0.00;0.00;;;;;;;10.24;100.00;98438.28;6246088;22;20007;-79
2022/11/08 07:55:05;;;;;;;0.00;0.00;;;;;;;10.17;100.00;98433.25;6274256;22;19991;-78
2022/11/08 07:57:31;;;;;;;0.00;0.00;;;;;;;10.09;100.00;98436.72;6273036;22;20040;-78
2022/11/08 08:03:36;;;;;;;0.00;0.00;;;;;;;10.13;100.00;98438.53;6277715;22;20034;-77
2022/11/08 08:06:04;;;;;;;0.00;0.00;;;;;;;10.12;100.00;98427.94;6268205;22;20086;-76
2022/11/08 08:08:52;;;;;;;0.00;0.00;;;;;;;10.20;100.00;98416.22;6296161;22;20007;-77
2022/11/08 08:11:18;;;;;;;0.00;0.00;;;;;;;10.28;100.00;98415.50;6272246;22;20007;-77
2022/11/08 08:13:58;;;;;;;0.00;0.00;;;;;;;10.39;100.00;98439.84;6294575;22;20007;-79
2022/11/08 08:19:28;;;;;;;;;;;;;;;;;;;;;
2022/11/08 08:22:00;;;;;;;0.00;0.00;;;;;;;10.92;100.00;98443.59;6295665;22;20022;-77
2022/11/08 08:24:34;;;;;;;0.00;0.00;;;;;;;11.18;100.00;98435.47;6297783;22;20003;-79
2022/11/08 08:27:15;;;;;;;0.00;0.00;;;;;;;11.32;100.00;98422.47;6270833;22;20007;-78
2022/11/08 08:29:50;;;;;;;0.00;0.00;;;;;;;11.68;100.00;98439.72;6247651;22;20015;-78
2022/11/08 08:32:15;;;;;;;0.00;0.00;;;;;;;11.74;100.00;98432.16;6295800;22;20114;-77
2022/11/08 08:34:41;;;;;;;0.00;0.00;;;;;;;11.92;100.00;98449.41;6270653;22;20005;-78
2022/11/08 08:37:16;;;;;;;0.00;0.00;;;;;;;11.94;100.00;98420.56;6267531;22;20012;-77
2022/11/08 08:39:51;;;;;;;0.00;0.00;;;;;;;12.03;100.00;98434.25;6293967;22;20043;-78
2022/11/08 09:45:56;;;;;;;;;;;;;;;;;;;;;
2022/11/08 09:48:48;;;;;;;0.00;0.00;;;;;;;12.09;100.00;98446.66;6259461;23;20020;-75
2022/11/08 09:55:30;;;;;;;0.00;0.00;;;;;;;12.22;100.00;98431.16;5948646;24;20020;-76
2022/11/08 09:58:41;;;;;;;;;;;;;;;;;;;;;
2022/11/08 10:05:47;;;;;;;;;;;;;;;;;;;;;
2022/11/08 10:09:39;;;;;;;;;;;;;;;;;;;;;
2022/11/08 10:12:08;;;;;;;0.00;0.00;;;;;;;13.54;100.00;98439.63;5843687;24;19997;-76
2022/11/08 10:15:57;;;;;;;0.00;0.00;;;;;;;14.79;100.00;98453.50;6000266;23;20004;-77
2022/11/08 10:18:37;;;;;;;;;;;;;;;;;;;;;
2022/11/08 10:25:24;;;;;;;0.00;0.00;;;;;;;14.40;100.00;98422.69;6060036;23;20018;-78
2022/11/08 10:27:57;;;;;;;0.00;0.00;;;;;;;15.56;100.00;98432.69;5984120;23;20015;-78
2022/11/08 10:31:02;;;;;;;0.00;0.00;;;;;;;17.91;100.00;98432.75;6123427;23;20021;-78
2022/11/08 10:34:15;;;;;;;0.00;0.00;;;;;;;20.63;99.85;98425.34;6098001;23;20006;-78
2022/11/08 10:37:14;;;;;;;;;;;;;;;;;;;;;
2022/11/08 10:40:48;;;;;;;0.10;0.10;;;;;;;21.22;77.94;98433.03;6174230;23;20008;-77
2022/11/08 10:44:04;;;;;;;2.53;0.52;;;;;;;18.37;80.23;98425.72;6118458;23;19998;-77
2022/11/08 10:47:16;;;;;;;0.00;0.00;;;;;;;17.99;88.33;98444.78;6204448;23;20293;-78
2022/11/08 10:50:04;;;;;;;;;;;;;;;18.70;92.86;98432.66;6241729;23;19996;-79
2022/11/08 10:56:11;;;;;;;0.00;0.00;;;;;;;18.52;93.73;98446.97;6153037;23;20017;-77
2022/11/08 10:59:13;;;;;;;;;;;;;;;;;;;;;
2022/11/08 11:03:13;;;;;;;;;;;;;;;;;;;;;
2022/11/08 11:09:26;;;;;;;2.05;1.58;;;;;;;21.10;68.73;98467.47;6037336;23;20035;-79
2022/11/08 11:16:19;;;;;;;0.28;0.28;;;;;;;19.94;76.13;98415.50;6053124;23;20010;-79
2022/11/08 11:22:48;;;;;;;0.15;0.15;;;;;;;20.51;74.77;98442.28;5912561;24;20406;-78
2022/11/08 11:26:03;;;;;;;;;;;;;;;;;;;;;
2022/11/08 11:28:18;;;;;;;13.25;1.55;;;;;;;16.60;75.86;98409.97;6227048;23;20012;-77
2022/11/08 11:31:36;;;;;;;4.57;0.73;;;;;;;17.83;83.21;98403.34;6236089;23;20012;-79
2022/11/08 11:37:49;;;;;;;0.20;0.20;;;;;;;20.32;69.70;98385.78;6225954;23;20004;-79
2022/11/08 11:41:07;;;;;;;0.60;0.60;;;;;;;20.22;68.67;98380.94;6222841;23;20011;-76
2022/11/08 11:58:47;;;;;;;;;;;;;;;;;;;;;
2022/11/08 12:02:05;;;;;;;;;;;;;;;;;;;;;
2022/11/08 12:05:21;;;;;;;2.90;1.08;;;;;;;23.47;66.69;98371.91;6141205;23;20006;-77
2022/11/08 12:08:42;;;;;;;0.63;0.63;;;;;;;20.37;67.33;98399.34;6138115;23;20445;-78
2022/11/08 12:15:07;;;;;;;0.82;0.80;;;;;;;19.44;76.03;98393.47;6184866;23;20478;-79
2022/11/08 12:20:51;;;;;;;0.00;0.00;;;;;;;19.62;72.30;98388.13;6247296;23;20012;-77
2022/11/08 12:23:58;;;;;;;0.25;0.25;;;;;;;16.49;74.81;98429.81;6238373;23;19991;-76
2022/11/08 12:26:52;;;;;;;;;;;;;;;;;;;;;
2022/11/08 12:32:41;;;;;;;0.00;0.00;;;;;;;12.29;99.46;98442.41;6254254;23;20012;-76
2022/11/08 12:35:37;;;;;;;0.00;0.00;;;;;;;11.94;100.00;98430.72;6257315;23;20004;-78
2022/11/08 12:38:37;;;;;;;0.00;0.00;;;;;;;11.63;100.00;98416.03;6261259;22;20308;-78
2022/11/08 12:41:50;;;;;;;0.00;0.00;;;;;;;11.21;100.00;98440.31;6238733;23;20004;-78
2022/11/08 12:44:48;;;;;;;0.13;0.13;;;;;;;11.08;100.00;98446.72;6225897;23;20007;-77
2022/11/08 12:47:43;;;;;;;0.00;0.00;;;;;;;10.72;100.00;98469.56;6257382;22;20030;-77
2022/11/08 12:50:25;;;;;;;0.00;0.00;;;;;;;10.33;100.00;98441.06;6231454;23;20031;-75
2022/11/08 12:52:59;;;;;;;0.00;0.00;;;;;;;10.04;100.00;98486.03;6259003;22;20002;-76
2022/11/08 12:55:40;;;;;;;0.00;0.00;;;;;;;9.88;100.00;98480.91;6230610;23;20000;-76
2022/11/08 12:58:42;;;;;;;0.00;0.00;;;;;;;9.96;100.00;98469.25;6233457;23;20007;-76
2022/11/08 13:01:24;;;;;;;;;;;;;;;;;;;;;
2022/11/08 13:03:59;;;;;;;0.00;0.00;;;;;;;11.00;100.00;98443.63;6245961;23;20019;-77
2022/11/08 13:06:35;;;;;;;0.00;0.00;;;;;;;14.59;100.00;98439.47;6236058;23;20034;-77
2022/11/08 13:09:43;;;;;;;0.00;0.00;;;;;;;16.93;100.00;98435.28;6230151;23;20092;-78
2022/11/08 13:12:42;;;;;;;;;;;;;;;;;;;;;
2022/11/08 13:15:30;;;;;;;0.00;0.00;;;;;;;13.81;91.10;98426.50;6263624;23;20346;-79
2022/11/08 13:18:10;;;;;;;0.00;0.00;;;;;;;12.80;96.40;98417.09;6213156;22;20015;-79
2022/11/08 13:21:12;;;;;;;;;;;;;;;;;;;;;
2022/11/08 13:23:36;;;;;;;0.00;0.00;;;;;;;12.17;100.00;98406.69;6258127;22;20016;-79
2022/11/08 13:26:23;;;;;;;0.00;0.00;;;;;;;11.90;99.71;98414.13;6234894;23;20036;-76
2022/11/08 13:36:38;;;;;;;0.00;0.00;;;;;;;11.60;100.00;98435.84;6205313;23;20016;-79
2022/11/08 13:40:05;;;;;;;;;;;;;;;;;;;;;
2022/11/08 13:46:57;;;;;;;0.00;0.00;;;;;;;12.14;100.00;98424.56;6058887;23;20003;-78
2022/11/08 13:50:36;;;;;;;;;;;;;;;;;;;;;
2022/11/08 13:53:17;;;;;;;0.00;0.00;;;;;;;17.39;95.02;98411.88;6067441;23;20015;-78
2022/11/08 13:55:50;;;;;;;4.53;1.20;;;;;;;17.39;79.31;98422.91;6019635;23;20022;-76
2022/11/08 13:58:45;;;;;;;0.10;0.10;;;;;;;15.24;82.27;98407.75;6226336;23;20016;-77
2022/11/08 14:01:17;;;;;;;0.00;0.00;;;;;;;14.54;89.28;98408.63;6258832;22;20004;-76
2022/11/08 14:03:45;;;;;;;0.00;0.00;;;;;;;14.29;91.53;98403.06;6233184;23;20008;-75
2022/11/08 14:06:16;;;;;;;20.15;1.98;;;;;;;14.36;90.81;98386.81;6230611;23;20038;-76
2022/11/08 14:09:29;;;;;;;0.00;0.00;;;;;;;14.48;89.87;98395.09;6258317;23;20004;-76
2022/11/08 14:12:41;;;;;;;0.00;0.00;;;;;;;14.88;89.92;98412.09;6259342;23;20095;-76
2022/11/08 14:15:22;;;;;;;0.10;0.10;;;;;;;15.84;86.18;98403.25;6231828;23;20016;-77
2022/11/08 14:17:57;;;;;;;1.08;0.20;;;;;;;16.41;86.37;98389.41;6232158;23;20000;-78
2022/11/08 14:20:38;;;;;;;0.13;0.13;;;;;;;17.22;83.87;98388.22;6259835;23;20006;-78
2022/11/08 14:23:22;;;;;;;0.00;0.00;;;;;;;18.15;84.25;98403.22;6231833;23;20037;-76
2022/11/08 14:25:58;;;;;;;0.00;0.00;;;;;;;19.46;78.51;98390.31;6234525;23;20019;-76
2022/11/08 14:28:32;;;;;;;0.00;0.00;;;;;;;19.64;75.80;98396.06;6232163;23;20000;-76
2022/11/08 14:30:59;;;;;;;0.00;0.00;;;;;;;18.90;77.42;98414.81;6232753;23;20019;-77
2022/11/08 14:33:29;;;;;;;1.55;1.45;;;;;;;19.54;75.45;98444.69;6257290;23;20008;-76
2022/11/08 14:36:01;;;;;;;0.00;0.00;;;;;;;20.36;76.39;98408.84;6234548;23;20034;-76
2022/11/08 14:38:35;;;;;;;0.35;0.35;;;;;;;20.80;73.91;98420.38;6255508;23;20000;-77
2022/11/08 14:41:06;;;;;;;0.20;0.20;;;;;;;19.93;71.05;98413.09;6234782;23;20058;-77
2022/11/08 14:43:45;;;;;;;1.30;1.20;;;;;;;18.52;73.90;98422.06;6233136;23;19996;-78
2022/11/08 14:46:53;;;;;;;0.00;0.00;;;;;;;17.95;76.06;98428.09;6235821;23;20060;-77
2022/11/08 14:49:22;;;;;;;0.00;0.00;;;;;;;18.29;78.95;98408.97;6265332;22;19999;-76
2022/11/08 14:52:03;;;;;;;1.45;0.55;;;;;;;18.74;74.46;98416.91;6250537;22;19996;-77
2022/11/08 14:54:39;;;;;;;7.78;0.77;;;;;;;16.89;72.84;98462.03;6266976;22;19984;-77
2022/11/08 14:57:30;;;;;;;0.68;0.55;;;;;;;16.40;79.00;98420.91;6262817;22;20298;-77
2022/11/08 15:00:02;;;;;;;0.80;0.80;;;;;;;17.70;75.45;98401.88;6263643;22;20022;-77
2022/11/08 15:02:47;;;;;;;0.00;0.00;;;;;;;18.37;72.68;98403.59;6263708;22;20044;-77
2022/11/08 15:06:09;;;;;;;;;;;;;;;;;;;;;
2022/11/08 15:09:09;;;;;;;;;;;;;;;;;;;;;
2022/11/08 15:14:51;;;;;;;;;;;;;;;;;;;;;
2022/11/08 15:17:33;;;;;;;2.25;1.83;;;;;;;14.53;86.03;98445.50;6228116;23;20024;-77
2022/11/08 15:20:14;;;;;;;0.00;0.00;;;;;;;14.38;83.83;98423.00;6242480;22;20084;-78
2022/11/08 15:22:47;;;;;;;0.45;0.20;;;;;;;14.38;83.25;98444.22;6263470;22;20003;-77
2022/11/08 15:25:16;;;;;;;0.95;0.47;;;;;;;13.94;85.66;98422.66;6217406;22;20004;-76
2022/11/08 15:28:12;;;;;;;3.22;0.57;;;;;;;13.87;86.25;98425.13;6290757;22;20023;-78
2022/11/08 15:37:38;;;;;;;1.95;0.90;;;;;;;12.87;88.93;98442.88;6188063;23;20371;-77
2022/11/08 15:40:37;;;;;;;0.77;0.47;;;;;;;12.55;90.68;98438.81;6284452;22;20458;-77
2022/11/08 15:43:38;;;;;;;;;;;;;;;;;;;;;
2022/11/08 15:46:05;;;;;;;0.00;0.00;;;;;;;12.51;92.43;98435.13;6288226;22;20030;-76
2022/11/08 15:48:32;;;;;;;0.00;0.00;;;;;;;12.43;95.65;98430.47;6228602;23;20016;-77
2022/11/08 15:50:58;;;;;;;0.00;0.00;;;;;;;12.26;94.20;98421.16;6205727;23;20074;-77
2022/11/08 15:53:26;;;;;;;0.00;0.00;;;;;;;12.24;94.94;98434.38;6233868;23;20008;-78
2022/11/08 15:56:01;;;;;;;2.55;1.05;;;;;;;12.21;93.06;98429.56;6229626;23;19996;-76
2022/11/08 15:59:35;;;;;;;1.45;1.23;;;;;;;12.16;93.17;98444.25;6233060;22;20216;-77
2022/11/08 16:01:53;;;;;;;0.05;0.00;;;;;;;12.24;93.32;98434.38;6224618;23;20019;-78
2022/11/08 16:04:19;;;;;;;0.00;0.00;;;;;;;12.26;94.27;98445.81;6231548;23;20083;-76
2022/11/08 16:06:44;;;;;;;0.10;0.10;;;;;;;12.19;94.64;98431.81;6232065;23;20000;-77
2022/11/08 16:09:12;;;;;;;0.00;0.00;;;;;;;12.10;95.90;98434.56;6229845;23;20015;-78
2022/11/08 16:11:44;;;;;;;0.35;0.35;;;;;;;11.91;95.69;98432.13;6233388;23;20015;-77
2022/11/08 16:14:32;;;;;;;0.00;0.00;;;;;;;11.89;95.16;98428.94;6229381;23;20031;-77
2022/11/08 16:17:13;;;;;;;7.68;1.80;;;;;;;11.86;94.58;98424.09;6231904;23;19996;-76
2022/11/08 16:19:41;;;;;;;0.00;0.00;;;;;;;11.96;96.76;98434.75;6258231;23;20072;-76
2022/11/08 16:22:17;;;;;;;0.93;0.43;;;;;;;12.01;95.34;98437.31;6205937;23;20051;-77
2022/11/08 16:25:08;;;;;;;0.00;0.00;;;;;;;11.61;97.92;98434.72;6209014;23;20004;-77
2022/11/08 16:28:01;;;;;;;0.00;0.00;;;;;;;11.24;99.94;98425.97;6255729;23;20012;-78
2022/11/08 16:30:32;;;;;;;0.00;0.00;;;;;;;11.03;100.00;98430.47;6261134;23;19988;-77
2022/11/08 16:33:02;;;;;;;0.20;0.20;;;;;;;10.92;100.00;98424.47;6233785;22;19992;-77
2022/11/08 16:35:59;;;;;;;0.00;0.00;;;;;;;10.89;100.00;98430.56;6260821;23;19996;-77
2022/11/08 16:38:31;;;;;;;0.88;0.60;;;;;;;10.76;100.00;98437.75;6230402;23;20334;-78
2022/11/08 16:41:00;;;;;;;0.45;0.30;;;;;;;10.81;100.00;98434.88;6235442;23;20004;-77
2022/11/08 16:43:26;;;;;;;1.60;0.80;;;;;;;10.80;100.00;98441.47;6233508;23;20008;-77
2022/11/08 16:46:07;;;;;;;0.00;0.00;;;;;;;10.89;100.00;98436.81;6204233;23;20008;-78
2022/11/08 16:48:37;;;;;;;1.25;0.68;;;;;;;10.99;100.00;98458.44;6200856;23;20084;-78
2022/11/08 16:51:12;;;;;;;0.20;0.20;;;;;;;11.07;100.00;98434.16;6234853;23;19988;-78
2022/11/08 16:53:43;;;;;;;1.60;0.75;;;;;;;10.90;100.00;98438.44;6230888;23;20004;-78
2022/11/08 16:56:08;;;;;;;2.88;1.58;;;;;;;10.81;100.00;98443.09;6233450;23;20008;-77
2022/11/08 16:58:36;;;;;;;0.68;0.52;;;;;;;10.73;100.00;98454.78;6180541;23;20023;-78
2022/11/08 17:01:41;;;;;;;0.17;0.17;;;;;;;10.69;100.00;98451.06;6181593;23;20004;-78
2022/11/08 17:04:37;;;;;;;;;;;;;;;;;;;;;
2022/11/08 17:07:10;;;;;;;0.08;0.08;;;;;;;10.67;100.00;98445.13;6234864;23;20015;-77
2022/11/08 17:09:36;;;;;;;0.00;0.00;;;;;;;10.64;100.00;98441.91;6235400;23;20042;-77
2022/11/08 17:12:41;;;;;;;0.00;0.00;;;;;;;10.71;100.00;98441.44;6232719;23;20667;-77
2022/11/08 17:15:30;;;;;;;0.82;0.80;;;;;;;10.82;100.00;98437.31;6260798;23;20051;-78
2022/11/08 17:18:26;;;;;;;0.00;0.00;;;;;;;10.80;100.00;98433.28;6234340;23;20038;-79
2022/11/08 17:23:59;;;;;;;;;;;;;;;;;;;;;
2022/11/08 17:26:53;;;;;;;4.20;0.85;;;;;;;11.04;100.00;98443.00;6196290;23;20001;-80
2022/11/08 17:29:21;;;;;;;0.13;0.13;;;;;;;11.08;100.00;98450.28;6207595;23;20011;-76
2022/11/08 17:31:56;;;;;;;0.00;0.00;;;;;;;11.07;100.00;98442.34;6237577;23;20224;-77
2022/11/08 17:34:32;;;;;;;;;;;;;;;11.08;100.00;98444.78;6211831;23;20068;-77
2022/11/08 17:37:16;;;;;;;;;;;;;;;;;;;;;
2022/11/08 17:39:57;;;;;;;0.70;0.70;;;;;;;11.20;100.00;98449.66;6264042;23;20008;-77
2022/11/08 17:42:45;;;;;;;0.00;0.00;;;;;;;11.28;100.00;98459.78;6182090;23;20019;-77
2022/11/08 17:45:14;;;;;;;3.95;0.85;;;;;;;11.19;100.00;98448.03;6209988;23;20034;-77
2022/11/08 17:47:44;;;;;;;0.00;0.00;;;;;;;10.97;100.00;98462.63;6246283;22;20031;-77
2022/11/08 17:50:10;;;;;;;45.95;8.05;;;;;;;10.82;100.00;98470.13;6218735;22;20438;-77
2022/11/08 17:52:36;;;;;;;0.00;0.00;;;;;;;10.77;100.00;98477.66;6264544;22;20016;-77
2022/11/08 17:55:07;;;;;;;1.77;1.67;;;;;;;10.72;100.00;98481.31;6263003;22;20532;-76